Time;durP1;ratioP1;P1;durP2;ratioP2;P2;SDS_P1;SDS_P2;PMS_P1;PMS_P2;Temp;Humidity;BMP_temperature;BMP_pressure;BME280_temperature;BME280_humidity;BME280_pressure;Samples;Min_cycle;Max_cycle;Signal;HPM_P1;HPM_P2
2022/01/31 00:01:13;;;;;;;30.90;8.73;;;;;;;4.58;100.00;101243.31;5093950;28;20399;-49
2022/01/31 00:03:39;;;;;;;30.65;9.75;;;;;;;4.64;100.00;101237.22;5092344;28;20032;-51
2022/01/31 00:06:04;;;;;;;28.52;8.93;;;;;;;4.58;100.00;101224.19;5092031;28;20046;-49
2022/01/31 00:08:30;;;;;;;41.15;10.40;;;;;;;4.61;100.00;101206.81;5093309;28;20071;-56
2022/01/31 00:10:57;;;;;;;24.10;9.75;;;;;;;4.62;100.00;101187.66;5093050;28;20056;-50
2022/01/31 00:13:31;;;;;;;22.48;9.27;;;;;;;4.21;100.00;101112.19;5093628;28;20040;-57
2022/01/31 00:15:57;;;;;;;24.63;10.43;;;;;;;4.43;100.00;101176.44;5093515;28;20032;-54
2022/01/31 00:18:23;;;;;;;33.42;12.27;;;;;;;3.83;100.00;101067.09;5093914;28;20036;-55
2022/01/31 00:20:49;;;;;;;30.25;11.93;;;;;;;4.10;100.00;101115.69;5093517;28;20093;-56
2022/01/31 00:23:14;;;;;;;34.83;12.07;;;;;;;4.55;100.00;101192.03;5093497;28;20024;-54
2022/01/31 00:25:40;;;;;;;29.27;11.60;;;;;;;4.43;100.00;101141.69;5092781;28;20130;-55
2022/01/31 00:28:05;;;;;;;31.10;13.00;;;;;;;4.51;100.00;101145.13;5093443;28;20040;-51
2022/01/31 00:30:30;;;;;;;33.38;12.48;;;;;;;4.42;100.00;101112.13;5092946;28;20046;-52
2022/01/31 00:32:56;;;;;;;29.45;11.85;;;;;;;4.50;100.00;101120.78;5093087;28;20624;-53
2022/01/31 00:35:21;;;;;;;32.65;12.75;;;;;;;4.17;100.00;101047.09;5093247;28;20507;-49
2022/01/31 00:37:47;;;;;;;31.90;12.95;;;;;;;4.59;100.00;101095.56;5091958;28;20487;-50
2022/01/31 00:40:13;;;;;;;30.17;11.45;;;;;;;4.60;100.00;101094.69;5091600;28;20412;-51
2022/01/31 00:42:38;;;;;;;33.00;11.73;;;;;;;4.17;100.00;101006.28;5091685;28;20039;-50
2022/01/31 00:45:23;;;;;;;29.40;10.93;;;;;;;4.63;100.00;101074.69;5092898;28;20044;-53
2022/01/31 00:47:59;;;;;;;31.27;10.50;;;;;;;4.61;100.00;101052.13;5091832;28;20051;-48
2022/01/31 00:50:25;;;;;;;32.38;10.50;;;;;;;4.11;100.00;100955.91;5092672;28;20035;-50
2022/01/31 00:52:50;;;;;;;23.33;9.13;;;;;;;4.69;100.00;101045.13;5092871;28;20024;-50
2022/01/31 00:55:16;;;;;;;26.70;8.60;;;;;;;4.27;100.00;100957.56;5092546;28;20070;-48
2022/01/31 00:57:42;;;;;;;37.92;9.93;;;;;;;4.29;100.00;100948.88;5091355;28;20032;-52
2022/01/31 01:00:09;;;;;;;28.92;9.15;;;;;;;4.82;100.00;101016.34;5092753;28;20067;-51
2022/01/31 01:02:34;;;;;;;26.52;7.55;;;;;;;4.84;100.00;100998.09;5091400;28;20040;-49
2022/01/31 01:05:00;;;;;;;17.48;7.30;;;;;;;4.86;100.00;101012.84;5090054;28;20406;-50
2022/01/31 01:07:25;;;;;;;23.35;6.82;;;;;;;4.44;100.00;100925.34;5092598;28;20487;-54
2022/01/31 01:09:50;;;;;;;16.33;6.40;;;;;;;4.90;100.00;100964.16;5092414;28;20270;-49
2022/01/31 01:12:18;;;;;;;19.58;6.63;;;;;;;4.44;100.00;100875.81;5092519;28;20044;-55
2022/01/31 01:14:44;;;;;;;20.63;6.55;;;;;;;4.91;100.00;100943.25;5091257;28;20486;-50
2022/01/31 01:17:09;;;;;;;18.45;6.30;;;;;;;4.69;100.00;100899.97;5091209;28;20024;-50
2022/01/31 01:19:35;;;;;;;19.30;5.70;;;;;;;4.92;100.00;100928.47;5092349;28;20035;-49
2022/01/31 01:22:01;;;;;;;19.95;6.25;;;;;;;4.79;100.00;100887.72;5074443;28;20140;-48
2022/01/31 01:24:26;;;;;;;22.05;6.55;;;;;;;5.03;100.00;100914.47;5092216;28;20028;-49
2022/01/31 01:26:53;;;;;;;17.35;5.50;;;;;;;5.14;100.00;100926.56;5092118;28;20056;-49
2022/01/31 01:29:19;;;;;;;18.38;6.07;;;;;;;4.78;100.00;100844.28;5092386;28;20046;-51
2022/01/31 01:31:46;;;;;;;17.83;6.28;;;;;;;5.18;100.00;100895.19;5090989;28;20024;-52
2022/01/31 01:34:11;;;;;;;22.58;5.88;;;;;;;5.46;100.00;100911.44;5092134;28;20115;-51
2022/01/31 01:36:38;;;;;;;27.63;6.68;;;;;;;5.53;100.00;100905.28;5092010;28;20111;-53
2022/01/31 01:39:03;;;;;;;26.90;6.32;;;;;;;5.63;100.00;100904.31;5092183;28;20024;-51
2022/01/31 01:41:29;;;;;;;28.92;6.25;;;;;;;5.32;100.00;100842.84;5092293;28;20032;-48
2022/01/31 01:43:54;;;;;;;34.88;7.22;;;;;;;5.74;100.00;100899.81;5092042;28;20040;-48
2022/01/31 01:46:20;;;;;;;35.03;6.32;;;;;;;5.81;100.00;100888.41;5092195;28;20393;-52
2022/01/31 01:48:45;;;;;;;33.42;6.40;;;;;;;5.87;100.00;100897.94;5091820;28;20032;-52
2022/01/31 01:51:11;;;;;;;27.00;6.53;;;;;;;5.89;100.00;100880.53;5090937;28;20039;-51
2022/01/31 01:53:36;;;;;;;35.00;6.68;;;;;;;5.58;100.00;100817.31;5090558;28;20412;-53
2022/01/31 01:56:02;;;;;;;38.53;6.07;;;;;;;5.60;100.00;100810.34;5092010;28;20127;-54
2022/01/31 01:58:37;;;;;;;22.63;5.28;;;;;;;6.10;100.00;100877.63;5090658;28;20085;-52
2022/01/31 02:01:02;;;;;;;23.50;5.47;;;;;;;6.11;100.00;100887.19;5090858;28;20047;-49
2022/01/31 02:03:30;;;;;;;27.10;5.20;;;;;;;6.18;100.00;100867.94;5091812;28;20044;-51
2022/01/31 02:05:56;;;;;;;22.92;5.25;;;;;;;6.16;100.00;100847.03;5091622;28;20036;-52
2022/01/31 02:08:22;;;;;;;26.90;5.93;;;;;;;5.75;100.00;100781.38;5090910;28;20032;-49
2022/01/31 02:10:47;;;;;;;21.35;4.95;;;;;;;6.19;100.00;100860.06;5091581;28;20396;-54
2022/01/31 02:13:15;;;;;;;31.40;5.80;;;;;;;6.23;100.00;100855.66;5090913;28;20032;-50
2022/01/31 02:15:41;;;;;;;23.05;4.72;;;;;;;6.18;100.00;100866.19;5091000;28;20028;-53
2022/01/31 02:18:07;;;;;;;19.75;5.05;;;;;;;5.77;100.00;100787.47;5094309;28;20083;-48
2022/01/31 02:20:37;;;;;;;25.00;5.55;;;;;;;6.15;100.00;100847.06;5095584;28;20036;-51
2022/01/31 02:23:05;;;;;;;23.73;4.63;;;;;;;5.75;100.00;100781.38;5095643;28;20028;-52
2022/01/31 02:25:31;;;;;;;16.73;4.25;;;;;;;5.78;100.00;100777.91;5095111;28;20478;-49
2022/01/31 02:27:56;;;;;;;17.88;5.05;;;;;;;5.99;100.00;100814.19;5095523;28;20154;-50
2022/01/31 02:30:22;;;;;;;23.35;4.03;;;;;;;6.12;100.00;100868.88;5095350;28;20248;-52
2022/01/31 02:32:47;;;;;;;19.98;3.92;;;;;;;6.06;100.00;100821.06;5095113;28;20032;-52
2022/01/31 02:35:13;;;;;;;18.25;4.20;;;;;;;6.18;100.00;100842.66;5095430;28;20514;-52
2022/01/31 02:37:38;;;;;;;19.20;4.03;;;;;;;5.63;100.00;100742.41;5095046;28;20077;-48
2022/01/31 02:40:04;;;;;;;22.98;4.47;;;;;;;6.10;100.00;100815.75;5095122;28;20040;-52
2022/01/31 02:42:30;;;;;;;15.20;3.95;;;;;;;5.79;100.00;100761.31;5095586;28;20119;-54
2022/01/31 02:44:55;;;;;;;20.67;4.28;;;;;;;6.16;100.00;100809.56;5094968;28;20028;-49
2022/01/31 02:47:25;;;;;;;19.13;3.80;;;;;;;6.26;100.00;100833.84;5094982;28;20064;-52
2022/01/31 02:50:00;;;;;;;19.23;3.55;;;;;;;6.19;100.00;100810.41;5095106;28;20045;-52
2022/01/31 02:52:30;;;;;;;17.55;4.28;;;;;;;6.28;100.00;100821.59;5095247;28;20494;-52
2022/01/31 02:54:55;;;;;;;23.13;3.65;;;;;;;5.96;100.00;100777.66;5093655;28;20494;-50
2022/01/31 02:57:21;;;;;;;20.85;3.70;;;;;;;6.04;100.00;100775.81;5095093;28;20070;-51
2022/01/31 02:59:46;;;;;;;19.77;3.20;;;;;;;5.86;100.00;100765.63;5094635;28;20147;-47
2022/01/31 03:02:11;;;;;;;18.25;3.60;;;;;;;6.19;100.00;100839.16;5095110;28;20074;-54
2022/01/31 03:04:37;;;;;;;17.83;4.10;;;;;;;6.15;100.00;100831.38;5094568;28;20496;-52
2022/01/31 03:07:02;;;;;;;17.83;3.45;;;;;;;6.07;100.00;100838.47;5094687;28;20482;-53
2022/01/31 03:09:28;;;;;;;20.83;3.65;;;;;;;6.01;100.00;100833.34;5093385;28;20143;-52
2022/01/31 03:11:53;;;;;;;16.48;3.15;;;;;;;5.64;100.00;100781.53;5093326;28;20040;-51
2022/01/31 03:14:19;;;;;;;16.00;3.50;;;;;;;5.51;100.00;100756.50;5093370;28;20039;-52
2022/01/31 03:16:48;;;;;;;17.40;4.22;;;;;;;5.79;100.00;100816.16;5093105;28;20036;-51
2022/01/31 03:19:15;;;;;;;24.23;4.18;;;;;;;5.49;100.00;100744.31;5094849;28;20039;-47
2022/01/31 03:21:40;;;;;;;20.92;3.25;;;;;;;5.37;100.00;100742.72;5093219;28;20032;-49
2022/01/31 03:24:06;;;;;;;16.25;2.88;;;;;;;5.49;100.00;100750.41;5094419;28;20169;-48
2022/01/31 03:26:32;;;;;;;22.80;4.30;;;;;;;5.45;100.00;100747.88;5094508;28;20043;-50
2022/01/31 03:28:57;;;;;;;18.23;3.28;;;;;;;5.90;100.00;100815.19;5092898;28;20040;-53
2022/01/31 03:31:23;;;;;;;18.60;3.38;;;;;;;5.97;100.00;100795.94;5092923;28;20043;-52
2022/01/31 03:33:50;;;;;;;16.85;3.00;;;;;;;6.03;100.00;100810.66;5094312;28;20036;-51
2022/01/31 03:36:15;;;;;;;16.40;3.33;;;;;;;5.82;100.00;100758.66;5094167;28;20121;-54
2022/01/31 03:38:41;;;;;;;18.17;3.92;;;;;;;6.09;100.00;100816.66;5094200;28;20067;-48
2022/01/31 03:41:11;;;;;;;17.85;3.45;;;;;;;5.62;100.00;100719.78;5094276;28;20402;-51
2022/01/31 03:43:37;;;;;;;13.35;3.15;;;;;;;6.10;100.00;100766.09;5093723;28;20028;-51
2022/01/31 03:46:03;;;;;;;21.85;4.50;;;;;;;6.15;100.00;100794.81;5094101;28;20040;-49
2022/01/31 03:48:29;;;;;;;16.35;3.58;;;;;;;6.04;100.00;100794.09;5093700;28;20081;-51
2022/01/31 03:50:58;;;;;;;17.05;3.28;;;;;;;5.98;100.00;100787.19;5092838;28;20081;-50
2022/01/31 03:53:24;;;;;;;14.15;3.55;;;;;;;6.03;100.00;100794.97;5075602;28;20060;-50
2022/01/31 03:55:49;;;;;;;21.42;4.22;;;;;;;6.18;100.00;100805.22;5092226;28;20063;-53
2022/01/31 03:58:14;;;;;;;24.52;4.20;;;;;;;5.69;100.00;100705.78;5109421;28;20074;-49
2022/01/31 04:00:40;;;;;;;20.13;3.70;;;;;;;6.25;100.00;100793.75;5093737;28;20032;-52
2022/01/31 04:03:06;;;;;;;18.45;3.67;;;;;;;6.09;100.00;100776.59;5093908;28;20092;-54
2022/01/31 04:05:31;;;;;;;20.17;3.42;;;;;;;6.27;100.00;100796.38;5092306;28;20475;-51
2022/01/31 04:08:00;;;;;;;12.05;3.42;;;;;;;6.26;100.00;100789.41;5092473;28;20024;-54
2022/01/31 04:10:26;;;;;;;19.75;3.38;;;;;;;5.90;100.00;100733.31;5093019;28;20048;-50
2022/01/31 04:12:52;;;;;;;18.35;3.10;;;;;;;5.83;100.00;100693.38;5093636;28;20024;-52
2022/01/31 04:15:17;;;;;;;17.05;3.47;;;;;;;6.14;100.00;100752.13;5093349;28;20055;-51
2022/01/31 04:17:43;;;;;;;22.77;3.67;;;;;;;6.36;100.00;100780.53;5092276;28;20068;-54
2022/01/31 04:20:09;;;;;;;16.92;3.47;;;;;;;5.92;100.00;100697.63;5093568;28;20410;-54
2022/01/31 04:22:40;;;;;;;15.50;3.67;;;;;;;6.32;100.00;100771.00;5092067;28;20043;-55
2022/01/31 04:25:06;;;;;;;;;;;;;;;6.42;100.00;100773.44;5092223;28;20098;-50
2022/01/31 04:27:44;;;;;;;20.00;3.97;;;;;;;6.44;100.00;100783.88;5092995;28;20397;-51
2022/01/31 04:30:12;;;;;;;18.48;3.05;;;;;;;6.26;100.00;100744.97;5092068;28;20085;-55
2022/01/31 04:32:37;;;;;;;15.07;3.40;;;;;;;6.40;100.00;100780.44;5091850;28;20088;-54
2022/01/31 04:35:03;;;;;;;18.95;3.58;;;;;;;6.43;100.00;100772.56;5093093;28;20036;-53
2022/01/31 04:37:29;;;;;;;16.17;4.03;;;;;;;5.99;100.00;100697.47;5091605;28;20097;-55
2022/01/31 04:39:54;;;;;;;20.85;3.60;;;;;;;6.47;100.00;100773.38;5092514;28;20116;-55
2022/01/31 04:42:20;;;;;;;20.92;3.55;;;;;;;6.26;100.00;100750.19;5093515;28;20111;-54
2022/01/31 04:44:45;;;;;;;23.83;3.40;;;;;;;6.36;100.00;100760.50;5092914;28;20031;-55
2022/01/31 04:47:11;;;;;;;16.17;3.60;;;;;;;6.31;100.00;100759.69;5093136;28;20433;-51
2022/01/31 04:49:36;;;;;;;17.80;3.78;;;;;;;6.31;100.00;100751.84;5091474;28;20034;-53
2022/01/31 04:52:02;;;;;;;14.75;3.22;;;;;;;5.74;100.00;100677.84;5092766;28;20063;-49
2022/01/31 04:54:27;;;;;;;18.02;3.22;;;;;;;6.16;100.00;100775.59;5092732;28;20044;-52
2022/01/31 04:56:53;;;;;;;15.88;3.30;;;;;;;6.00;100.00;100801.13;5092816;28;20051;-52
2022/01/31 04:59:19;;;;;;;23.25;4.22;;;;;;;5.71;100.00;100757.97;5108049;28;20059;-55
2022/01/31 05:01:46;;;;;;;25.90;4.35;;;;;;;5.57;100.00;100742.50;5089591;28;20035;-51
2022/01/31 05:04:12;;;;;;;18.55;4.00;;;;;;;5.52;100.00;100757.34;5107101;28;20040;-50
2022/01/31 05:06:39;;;;;;;17.08;4.05;;;;;;;4.89;100.00;100659.88;5090535;28;20036;-53
2022/01/31 05:09:06;;;;;;;21.65;4.13;;;;;;;5.26;100.00;100725.47;5092098;28;20044;-51
2022/01/31 05:11:32;;;;;;;27.25;4.82;;;;;;;4.98;100.00;100672.81;5091068;28;20028;-54
2022/01/31 05:13:57;;;;;;;25.10;4.13;;;;;;;5.56;100.00;100770.34;5092577;28;20059;-56
2022/01/31 05:16:23;;;;;;;22.77;4.38;;;;;;;5.66;100.00;100758.88;5092338;28;20533;-50
2022/01/31 05:18:48;;;;;;;17.67;3.63;;;;;;;5.11;100.00;100672.63;5092284;28;20113;-53
2022/01/31 05:21:14;;;;;;;23.33;4.30;;;;;;;5.30;100.00;100667.16;5090811;28;20062;-53
2022/01/31 05:23:39;;;;;;;20.05;5.05;;;;;;;5.34;100.00;100667.09;5092451;28;20028;-49
2022/01/31 05:26:04;;;;;;;21.92;4.97;;;;;;;5.78;100.00;100744.78;5090854;28;20040;-50
2022/01/31 05:28:30;;;;;;;23.35;4.10;;;;;;;5.34;100.00;100692.34;5092387;28;20497;-52
2022/01/31 05:30:55;;;;;;;24.45;4.53;;;;;;;5.78;100.00;100759.63;5091211;28;20122;-54
2022/01/31 05:33:21;;;;;;;19.85;3.85;;;;;;;5.83;100.00;100756.06;5092223;28;20032;-54
2022/01/31 05:35:46;;;;;;;20.27;4.05;;;;;;;5.88;100.00;100772.53;5092049;28;20032;-52
2022/01/31 05:38:12;;;;;;;20.48;4.03;;;;;;;5.89;100.00;100753.38;5090912;28;20124;-54
2022/01/31 05:40:38;;;;;;;22.08;4.45;;;;;;;5.95;100.00;100775.94;5092408;28;20028;-51
2022/01/31 05:43:03;;;;;;;22.92;5.35;;;;;;;5.95;100.00;100766.38;5092092;28;20036;-51
2022/01/31 05:45:29;;;;;;;23.98;5.22;;;;;;;5.67;100.00;100713.59;5092111;28;20060;-49
2022/01/31 05:47:54;;;;;;;23.13;5.10;;;;;;;5.52;100.00;100682.50;5073916;28;20475;-54
2022/01/31 05:50:20;;;;;;;21.35;5.00;;;;;;;5.91;100.00;100756.81;5091986;28;20040;-49
2022/01/31 05:52:45;;;;;;;23.33;4.55;;;;;;;5.89;100.00;100726.41;5095923;28;20475;-51
2022/01/31 05:55:11;;;;;;;23.98;4.72;;;;;;;5.88;100.00;100730.75;5096108;28;20506;-51
2022/01/31 05:57:36;;;;;;;28.30;5.75;;;;;;;5.96;100.00;100775.03;5094829;28;20051;-54
2022/01/31 06:00:06;;;;;;;25.35;4.65;;;;;;;5.55;100.00;100658.09;5096193;28;20028;-49
2022/01/31 06:02:32;;;;;;;23.35;4.45;;;;;;;6.03;100.00;100747.94;5094911;28;20032;-50
2022/01/31 06:04:57;;;;;;;28.85;5.35;;;;;;;5.66;100.00;100684.94;5095518;28;20085;-49
2022/01/31 06:07:22;;;;;;;21.52;4.15;;;;;;;6.15;100.00;100740.78;5095067;28;20136;-50
2022/01/31 06:09:48;;;;;;;23.33;5.15;;;;;;;6.17;100.00;100766.88;5095714;28;20044;-55
2022/01/31 06:12:15;;;;;;;20.92;4.85;;;;;;;6.13;100.00;100729.47;5096066;28;20020;-54
2022/01/31 06:14:40;;;;;;;22.67;4.65;;;;;;;6.19;100.00;100772.94;5095571;28;20479;-54
2022/01/31 06:17:06;;;;;;;24.60;4.40;;;;;;;5.78;100.00;100694.31;5094541;28;20043;-52
2022/01/31 06:19:31;;;;;;;26.50;5.10;;;;;;;6.20;100.00;100752.03;5095709;28;20479;-53
2022/01/31 06:21:56;;;;;;;16.88;4.70;;;;;;;6.21;100.00;100753.75;5095879;28;20038;-55
2022/01/31 06:24:22;;;;;;;23.30;4.53;;;;;;;6.22;100.00;100747.63;5095613;28;20032;-52
2022/01/31 06:26:47;;;;;;;23.80;4.80;;;;;;;5.70;100.00;100663.06;5111411;28;20044;-52
2022/01/31 06:29:13;;;;;;;26.40;5.35;;;;;;;6.25;100.00;100751.94;5095704;28;20028;-52
2022/01/31 06:31:38;;;;;;;21.73;4.85;;;;;;;6.19;100.00;100728.50;5095317;28;20046;-49
2022/01/31 06:34:04;;;;;;;26.98;5.20;;;;;;;5.82;100.00;100683.78;5095913;28;20195;-51
2022/01/31 06:36:29;;;;;;;25.42;5.20;;;;;;;6.25;100.00;100770.22;5093867;28;20454;-55
2022/01/31 06:38:55;;;;;;;24.45;5.15;;;;;;;5.67;100.00;100703.16;5095430;28;20506;-50
2022/01/31 06:41:22;;;;;;;19.23;5.53;;;;;;;5.96;100.00;100790.72;5095325;28;20401;-51
2022/01/31 06:43:48;;;;;;;31.02;5.22;;;;;;;5.69;100.00;100777.13;5095319;28;20032;-51
2022/01/31 06:46:14;;;;;;;25.83;5.30;;;;;;;5.59;100.00;100766.81;5095502;28;20035;-50
2022/01/31 06:48:39;;;;;;;29.45;4.85;;;;;;;5.39;100.00;100782.75;5094875;28;20035;-50
2022/01/31 06:51:05;;;;;;;34.85;6.57;;;;;;;4.98;100.00;100718.00;5095027;28;20036;-52
2022/01/31 06:53:30;;;;;;;23.15;4.93;;;;;;;5.32;100.00;100772.38;5095180;28;20111;-51
2022/01/31 06:55:56;;;;;;;22.17;4.95;;;;;;;5.16;100.00;100760.41;5093700;28;20184;-52
2022/01/31 06:58:22;;;;;;;32.67;5.28;;;;;;;4.82;100.00;100682.53;5094966;28;20035;-51
2022/01/31 07:00:48;;;;;;;27.20;5.35;;;;;;;5.26;100.00;100773.31;5095294;28;20123;-50
2022/01/31 07:03:13;;;;;;;31.90;5.85;;;;;;;5.31;100.00;100778.50;5094879;28;20115;-51
2022/01/31 07:05:40;;;;;;;31.38;5.55;;;;;;;4.93;100.00;100700.69;5110091;28;20471;-55
2022/01/31 07:08:06;;;;;;;30.80;6.18;;;;;;;4.98;100.00;100704.97;5094578;28;20484;-54
2022/01/31 07:10:32;;;;;;;33.25;5.03;;;;;;;5.38;100.00;100762.75;5092967;28;20491;-48
2022/01/31 07:12:58;;;;;;;22.20;5.35;;;;;;;5.26;100.00;100734.19;5076430;28;20057;-54
2022/01/31 07:15:24;;;;;;;30.38;6.20;;;;;;;5.48;100.00;100779.16;5094389;28;20050;-56
2022/01/31 07:17:49;;;;;;;36.70;4.97;;;;;;;5.45;100.00;100777.47;5093259;28;20031;-53
2022/01/31 07:20:25;;;;;;;28.13;4.38;;;;;;;5.56;100.00;100801.69;5092857;28;20080;-55
2022/01/31 07:23:00;;;;;;;33.92;6.03;;;;;;;5.38;100.00;100739.25;5094375;28;20043;-51
2022/01/31 07:25:34;;;;;;;30.77;5.93;;;;;;;5.57;100.00;100759.00;5092554;28;20032;-55
2022/01/31 07:28:11;;;;;;;28.65;5.60;;;;;;;5.53;100.00;100765.16;5094341;28;20042;-53
2022/01/31 07:30:40;;;;;;;33.58;5.43;;;;;;;5.63;100.00;100778.97;5094199;28;20467;-54
2022/01/31 07:33:12;;;;;;;40.42;6.15;;;;;;;5.57;100.00;100782.50;5094216;28;20040;-52
2022/01/31 07:35:39;;;;;;;37.65;7.03;;;;;;;5.25;100.00;100745.53;5092975;28;20456;-52
2022/01/31 07:38:04;;;;;;;36.85;6.93;;;;;;;5.35;100.00;100782.78;5092947;28;20059;-55
2022/01/31 07:40:30;;;;;;;31.85;7.05;;;;;;;5.34;100.00;100773.25;5092827;28;20062;-56
2022/01/31 07:42:55;;;;;;;35.97;6.85;;;;;;;5.10;100.00;100730.03;5092389;28;20482;-56
2022/01/31 07:45:21;;;;;;;28.92;5.63;;;;;;;5.52;100.00;100786.91;5093984;28;20047;-55
2022/01/31 07:47:46;;;;;;;21.70;4.82;;;;;;;5.52;100.00;100786.06;5091276;28;20032;-51
2022/01/31 07:50:13;;;;;;;28.77;5.72;;;;;;;5.47;100.00;100770.47;5091213;28;20085;-51
2022/01/31 07:52:39;;;;;;;31.00;5.47;;;;;;;5.73;100.00;100814.50;5093871;28;20217;-56
2022/01/31 07:55:05;;;;;;;29.45;5.72;;;;;;;5.57;100.00;100784.28;5093497;28;20145;-52
2022/01/31 07:57:30;;;;;;;24.98;6.22;;;;;;;5.77;100.00;100849.28;5093475;28;20435;-49
2022/01/31 07:59:55;;;;;;;31.08;6.30;;;;;;;5.81;100.00;100824.88;5092156;28;20038;-55
2022/01/31 08:02:21;;;;;;;30.77;6.55;;;;;;;5.89;100.00;100807.38;5091051;28;20032;-54
2022/01/31 08:04:46;;;;;;;36.03;7.22;;;;;;;5.90;100.00;100801.25;5092984;28;20402;-53
2022/01/31 08:07:12;;;;;;;34.67;6.30;;;;;;;5.90;100.00;100819.53;5093495;28;20032;-53
2022/01/31 08:09:38;;;;;;;37.30;5.82;;;;;;;5.61;100.00;100746.78;5093280;28;20044;-55
2022/01/31 08:12:05;;;;;;;31.50;6.63;;;;;;;5.50;100.00;100719.94;5093137;28;20032;-56
2022/01/31 08:14:30;;;;;;;33.90;5.93;;;;;;;6.11;100.00;100835.78;5092954;28;20032;-54
2022/01/31 08:16:56;;;;;;;36.25;6.45;;;;;;;5.64;100.00;100786.78;5092233;28;20024;-53
2022/01/31 08:19:21;;;;;;;33.75;6.53;;;;;;;6.04;100.00;100880.34;5093891;28;20078;-54
2022/01/31 08:21:46;;;;;;;43.25;8.77;;;;;;;5.49;100.00;100775.66;5093083;28;20107;-54
2022/01/31 08:24:12;;;;;;;41.40;6.68;;;;;;;5.41;100.00;100769.66;5092177;28;20032;-54
2022/01/31 08:26:39;;;;;;;34.13;6.55;;;;;;;5.83;100.00;100855.31;5093026;28;20463;-54
2022/01/31 08:29:18;;;;;;;35.90;6.95;;;;;;;5.86;100.00;100857.91;5092027;28;20036;-53
2022/01/31 08:31:46;;;;;;;31.38;6.63;;;;;;;5.52;100.00;100791.28;5091438;28;20036;-53
2022/01/31 08:36:42;;;;;;;33.50;6.22;;;;;;;5.68;100.00;100837.22;5092430;28;20040;-48
2022/01/31 08:39:09;;;;;;;28.90;6.05;;;;;;;5.82;100.00;100842.25;5092547;28;20059;-52
2022/01/31 08:41:36;;;;;;;31.10;5.80;;;;;;;5.91;100.00;100892.69;5092043;28;20547;-53
2022/01/31 08:44:03;;;;;;;32.05;7.60;;;;;;;5.92;100.00;100847.41;5074845;28;20071;-54
2022/01/31 08:46:28;;;;;;;36.00;7.22;;;;;;;6.10;100.00;100881.09;5092904;28;20539;-53
2022/01/31 08:48:55;;;;;;;36.00;6.80;;;;;;;6.01;100.00;100864.69;5091430;28;20023;-50
2022/01/31 08:51:20;;;;;;;39.83;7.10;;;;;;;6.15;100.00;100878.44;5091509;28;20411;-48
2022/01/31 08:53:48;;;;;;;40.13;6.57;;;;;;;6.13;100.00;100873.22;5091351;28;20032;-51
2022/01/31 08:56:14;;;;;;;33.88;7.03;;;;;;;6.15;100.00;100892.38;5091389;28;20032;-52
2022/01/31 08:58:45;;;;;;;46.15;8.13;;;;;;;6.14;100.00;100859.25;5091163;28;20060;-51
2022/01/31 09:01:12;;;;;;;43.00;7.97;;;;;;;6.15;100.00;100884.53;5092857;28;20040;-51
2022/01/31 09:06:08;;;;;;;36.03;7.22;;;;;;;6.11;100.00;100869.75;5088136;28;20129;-53
2022/01/31 09:08:34;;;;;;;31.50;6.90;;;;;;;5.59;100.00;100813.81;5087008;28;20122;-55
2022/01/31 09:11:00;;;;;;;46.70;8.00;;;;;;;6.00;100.00;100899.53;5092105;28;20032;-53
2022/01/31 09:13:25;;;;;;;43.38;8.38;;;;;;;5.56;100.00;100824.31;5090826;28;20024;-51
2022/01/31 09:15:51;;;;;;;36.78;8.10;;;;;;;5.94;100.00;100884.81;5090636;28;20035;-52
2022/01/31 09:18:16;;;;;;;46.58;8.57;;;;;;;6.16;100.00;100929.78;5079095;28;20029;-52
2022/01/31 09:20:42;;;;;;;39.60;8.10;;;;;;;6.23;100.00;100913.16;5088064;28;20032;-54
2022/01/31 09:23:07;;;;;;;51.42;8.77;;;;;;;5.98;100.00;100868.19;5090299;28;20081;-52
2022/01/31 09:25:33;;;;;;;41.45;7.78;;;;;;;5.89;100.00;100873.56;5089938;28;20089;-53
2022/01/31 09:28:00;;;;;;;37.50;7.88;;;;;;;6.12;100.00;100896.75;5090925;28;20055;-54
2022/01/31 09:30:27;;;;;;;39.35;7.93;;;;;;;6.36;100.00;100911.25;5085450;28;20055;-49
2022/01/31 09:32:56;;;;;;;38.70;7.72;;;;;;;6.52;100.00;100937.16;5086667;28;20043;-56
2022/01/31 09:35:22;;;;;;;40.72;8.70;;;;;;;6.13;100.00;100883.66;5091755;28;20032;-52
2022/01/31 09:37:48;;;;;;;43.85;8.15;;;;;;;6.39;100.00;100922.50;5091206;28;20027;-54
2022/01/31 09:40:18;;;;;;;41.10;8.18;;;;;;;6.40;100.00;100942.53;5091877;28;20039;-51
2022/01/31 09:48:33;;;;;;;40.90;7.57;;;;;;;6.28;100.00;100934.88;5084061;28;20036;-55
2022/01/31 09:51:11;;;;;;;41.40;7.87;;;;;;;6.22;100.00;100933.19;5091464;28;20071;-51
2022/01/31 09:53:39;;;;;;;39.22;7.80;;;;;;;6.55;100.00;101001.63;5052334;28;20028;-51
2022/01/31 09:56:08;;;;;;;34.42;7.93;;;;;;;6.54;100.00;101005.97;5070969;28;20059;-52
2022/01/31 09:58:34;;;;;;;35.17;8.13;;;;;;;6.53;100.00;101003.41;5069269;28;20037;-51
2022/01/31 10:01:20;;;;;;;37.47;8.02;;;;;;;6.50;100.00;101008.66;5069912;28;20059;-51
2022/01/31 10:03:56;;;;;;;44.75;8.80;;;;;;;6.50;100.00;101048.75;5071603;28;20028;-52
2022/01/31 10:06:26;;;;;;;41.72;9.15;;;;;;;6.44;100.00;101045.34;5071691;28;20036;-52
2022/01/31 10:09:02;;;;;;;38.05;8.27;;;;;;;6.39;100.00;101049.78;5071241;28;20369;-50
2022/01/31 10:11:29;;;;;;;54.53;9.20;;;;;;;6.25;100.00;101036.00;5071808;28;20063;-53
2022/01/31 10:16:46;;;;;;;41.95;7.80;;;;;;;5.75;100.00;100982.50;5070670;28;20051;-50
2022/01/31 10:19:12;;;;;;;41.55;7.57;;;;;;;5.84;100.00;101071.22;5071197;28;20440;-51
2022/01/31 10:21:56;;;;;;;45.28;8.50;;;;;;;6.26;100.00;101054.28;5071407;28;20484;-52
2022/01/31 10:24:22;;;;;;;40.97;8.98;;;;;;;6.30;100.00;101071.66;5071599;28;20047;-54
2022/01/31 10:26:48;;;;;;;46.78;9.18;;;;;;;6.28;100.00;101062.09;5071086;28;20029;-53
2022/01/31 10:29:15;;;;;;;45.50;8.70;;;;;;;6.00;100.00;101043.25;5070631;28;20111;-53
2022/01/31 10:32:13;;;;;;;38.95;8.43;;;;;;;6.36;100.00;101113.44;5068870;28;20399;-53
2022/01/31 10:34:44;;;;;;;40.13;7.80;;;;;;;5.67;100.00;100974.75;5070745;28;20040;-52
2022/01/31 10:37:13;;;;;;;45.50;8.13;;;;;;;6.21;100.00;101113.59;5072385;28;20552;-52
2022/01/31 10:45:28;;;;;;;44.17;8.73;;;;;;;6.01;100.00;101031.91;5074994;28;20127;-54
2022/01/31 10:56:24;;;;;;;41.65;9.77;;;;;;;6.19;100.00;101099.66;5074728;28;20042;-54
2022/01/31 10:58:53;;;;;;;42.15;9.65;;;;;;;5.80;100.00;101003.38;5073600;28;20036;-51
2022/01/31 11:01:19;;;;;;;61.08;10.32;;;;;;;6.30;100.00;101117.84;5074443;28;20030;-52
2022/01/31 11:03:45;;;;;;;51.13;10.02;;;;;;;6.13;100.00;101084.03;5074742;28;20041;-50
2022/01/31 11:06:12;;;;;;;55.55;11.32;;;;;;;6.33;100.00;101159.66;5073167;28;20490;-53
2022/01/31 11:08:38;;;;;;;45.85;9.48;;;;;;;5.94;100.00;101069.44;5073111;28;20040;-56
2022/01/31 11:11:03;;;;;;;41.72;10.27;;;;;;;6.22;100.00;101094.38;5074657;28;20048;-53
2022/01/31 11:13:31;;;;;;;46.67;9.80;;;;;;;6.36;100.00;101118.66;5056207;28;20368;-51
2022/01/31 11:15:57;;;;;;;51.92;10.10;;;;;;;5.82;100.00;101044.25;5073629;28;20029;-51
2022/01/31 11:18:24;;;;;;;42.30;8.50;;;;;;;6.12;100.00;101113.69;5074119;28;20123;-51
2022/01/31 11:20:53;;;;;;;48.88;9.90;;;;;;;5.99;100.00;101081.56;5074530;28;20037;-56
2022/01/31 11:23:21;;;;;;;55.33;10.82;;;;;;;5.69;100.00;101055.72;5056477;28;20445;-50
2022/01/31 11:25:47;;;;;;;44.40;9.35;;;;;;;5.97;100.00;101184.38;5072723;28;20036;-53
2022/01/31 11:28:13;;;;;;;41.88;9.40;;;;;;;5.85;100.00;101161.81;5072784;28;20046;-50
2022/01/31 11:30:41;;;;;;;46.08;9.10;;;;;;;5.24;100.00;101096.09;5072883;28;20038;-51
2022/01/31 11:33:06;;;;;;;49.72;10.57;;;;;;;5.61;100.00;101173.28;5073047;28;20056;-51
2022/01/31 11:35:32;;;;;;;50.67;10.93;;;;;;;5.45;100.00;101149.91;5072751;28;20068;-52
2022/01/31 11:37:57;;;;;;;48.03;9.90;;;;;;;5.09;100.00;101085.75;5074270;28;20565;-50
2022/01/31 11:40:23;;;;;;;49.97;8.93;;;;;;;5.19;100.00;101102.22;5073574;28;20166;-51
2022/01/31 11:42:49;;;;;;;45.80;9.32;;;;;;;5.53;100.00;101171.59;5072811;28;20036;-54